Time;durP1;ratioP1;P1;durP2;ratioP2;P2;SDS_P1;SDS_P2;PMS_P1;PMS_P2;Temp;Humidity;BMP_temperature;BMP_pressure;BME280_temperature;BME280_humidity;BME280_pressure;Samples;Min_cycle;Max_cycle;Signal;HPM_P1;HPM_P2
2021/10/24 00:00:11;;;;;;;10.13;4.10;;;15.90;87.20;;;;;;4207327;28;20130;-60
2021/10/24 00:02:33;;;;;;;3.88;3.47;;;15.90;87.00;;;;;;4224538;27;20118;-60
2021/10/24 00:04:57;;;;;;;6.15;4.07;;;15.90;87.40;;;;;;4224512;27;20485;-60
2021/10/24 00:07:19;;;;;;;6.75;4.28;;;15.90;87.20;;;;;;4211379;27;20070;-60
2021/10/24 00:09:41;;;;;;;4.72;4.10;;;15.90;87.30;;;;;;4207914;28;20146;-60
2021/10/24 00:12:03;;;;;;;4.95;4.10;;;15.80;87.30;;;;;;4189449;28;20064;-61
2021/10/24 00:14:26;;;;;;;7.55;4.00;;;15.80;87.50;;;;;;4207875;28;20078;-61
2021/10/24 00:16:48;;;;;;;5.70;4.15;;;15.80;87.50;;;;;;4207431;28;20063;-60
2021/10/24 00:19:10;;;;;;;3.92;3.55;;;15.80;88.30;;;;;;4207658;28;20509;-60
2021/10/24 00:21:33;;;;;;;3.58;3.28;;;15.80;87.70;;;;;;4207629;28;20090;-61
2021/10/24 00:23:56;;;;;;;5.25;3.97;;;15.80;87.50;;;;;;4207323;28;20059;-61
2021/10/24 00:26:19;;;;;;;4.82;3.55;;;15.80;87.40;;;;;;4206920;28;20051;-61
2021/10/24 00:28:41;;;;;;;5.50;3.97;;;15.80;87.50;;;;;;4207779;28;20083;-62
2021/10/24 00:31:04;;;;;;;4.40;4.00;;;15.80;87.50;;;;;;4224417;27;20143;-61
2021/10/24 00:33:26;;;;;;;7.20;4.68;;;15.80;88.40;;;;;;4224480;27;20465;-60
2021/10/24 00:35:54;;;;;;;6.90;4.68;;;15.80;87.20;;;;;;4218651;27;20494;-62
2021/10/24 00:38:18;;;;;;;6.22;4.38;;;15.80;87.50;;;;;;4209293;28;20051;-61
2021/10/24 00:40:40;;;;;;;5.07;4.10;;;15.80;87.40;;;;;;4209227;28;20600;-60
2021/10/24 00:43:03;;;;;;;5.70;4.57;;;15.80;87.30;;;;;;4210626;28;20468;-60
2021/10/24 00:45:25;;;;;;;8.25;5.35;;;15.80;87.50;;;;;;4210457;28;20048;-56
2021/10/24 00:47:47;;;;;;;7.45;5.25;;;15.80;87.10;;;;;;4210504;28;20071;-61
2021/10/24 00:50:11;;;;;;;5.43;4.78;;;15.70;87.00;;;;;;4210385;28;20466;-60
2021/10/24 00:52:33;;;;;;;8.60;5.80;;;15.70;86.80;;;;;;4208482;28;20132;-60
2021/10/24 00:54:57;;;;;;;6.22;4.63;;;15.70;87.00;;;;;;4193611;28;20600;-61
2021/10/24 00:57:19;;;;;;;6.63;5.30;;;15.80;86.70;;;;;;4192319;28;20053;-60
2021/10/24 00:59:42;;;;;;;5.35;4.85;;;15.70;86.90;;;;;;4192157;28;20083;-60
2021/10/24 01:02:04;;;;;;;7.05;5.63;;;15.70;87.30;;;;;;4176869;28;20415;-60
2021/10/24 01:04:26;;;;;;;7.50;5.35;;;15.70;87.00;;;;;;4192752;28;20044;-61
2021/10/24 01:06:51;;;;;;;6.85;5.80;;;15.70;86.90;;;;;;4176643;28;20048;-60
2021/10/24 01:09:15;;;;;;;6.88;5.88;;;15.70;86.60;;;;;;4191722;28;20473;-61
2021/10/24 01:11:41;;;;;;;7.57;6.40;;;15.70;87.20;;;;;;4191784;28;20486;-60
2021/10/24 01:14:03;;;;;;;6.45;5.82;;;15.70;87.10;;;;;;4192905;28;20071;-60
2021/10/24 01:16:25;;;;;;;7.95;6.38;;;15.70;86.70;;;;;;4206023;28;20040;-60
2021/10/24 01:18:47;;;;;;;8.05;5.68;;;15.70;86.70;;;;;;4208423;28;20051;-60
2021/10/24 01:21:11;;;;;;;6.93;6.30;;;15.70;86.90;;;;;;4208507;28;20562;-60
2021/10/24 01:23:33;;;;;;;5.80;5.30;;;15.70;86.40;;;;;;4207954;28;20123;-61
2021/10/24 01:25:55;;;;;;;10.48;6.03;;;15.70;86.50;;;;;;4208443;28;20056;-61
2021/10/24 01:28:17;;;;;;;6.18;5.47;;;15.70;85.90;;;;;;4208351;28;20135;-61
2021/10/24 01:30:39;;;;;;;8.75;5.80;;;15.60;86.40;;;;;;4209605;28;20520;-60
2021/10/24 01:33:02;;;;;;;7.57;5.70;;;15.70;86.20;;;;;;4208363;28;20151;-60
2021/10/24 01:35:24;;;;;;;6.40;4.80;;;15.60;86.30;;;;;;4208161;28;20048;-61
2021/10/24 01:37:49;;;;;;;7.35;5.43;;;15.60;87.40;;;;;;4209818;28;20074;-60
2021/10/24 01:40:13;;;;;;;6.55;5.18;;;15.60;86.20;;;;;;4209296;28;20414;-60
2021/10/24 01:42:36;;;;;;;7.72;5.30;;;15.60;87.50;;;;;;4208159;28;20055;-60
2021/10/24 01:44:58;;;;;;;6.25;5.20;;;15.70;88.20;;;;;;4209514;28;20064;-60
2021/10/24 01:47:20;;;;;;;6.40;5.80;;;15.80;88.10;;;;;;4208136;28;20695;-60
2021/10/24 01:49:42;;;;;;;7.60;5.93;;;15.90;87.70;;;;;;4208007;28;20592;-60
2021/10/24 01:52:05;;;;;;;6.22;5.43;;;15.90;87.30;;;;;;4209307;28;20508;-61
2021/10/24 01:54:29;;;;;;;6.32;4.32;;;16.00;87.20;;;;;;4207900;28;20099;-60
2021/10/24 01:56:52;;;;;;;6.80;5.88;;;16.00;86.80;;;;;;4207556;28;20107;-61
2021/10/24 01:59:14;;;;;;;6.35;5.75;;;16.10;86.90;;;;;;4207939;28;20551;-61
2021/10/24 02:02:02;;;;;;;6.78;6.13;;;16.10;86.70;;;;;;4208811;28;20563;-59
2021/10/24 02:05:00;;;;;;;7.10;6.30;;;16.10;86.90;;;;;;4153247;28;20462;-60
2021/10/24 02:07:25;;;;;;;7.10;5.35;;;16.10;86.90;;;;;;4185253;28;20052;-59
2021/10/24 02:09:48;;;;;;;9.35;6.22;;;16.10;86.80;;;;;;4192234;28;20537;-60
2021/10/24 02:12:13;;;;;;;5.43;4.78;;;16.10;87.40;;;;;;4191043;28;20060;-60
2021/10/24 02:14:35;;;;;;;7.40;6.57;;;16.10;86.90;;;;;;4205161;28;20044;-60
2021/10/24 02:16:57;;;;;;;9.00;6.43;;;16.10;86.70;;;;;;4206645;28;20494;-60
2021/10/24 02:19:19;;;;;;;7.75;6.28;;;16.00;86.70;;;;;;4207798;28;20139;-60
2021/10/24 02:21:42;;;;;;;7.07;6.05;;;16.00;86.60;;;;;;4207581;28;20058;-60
2021/10/24 02:24:04;;;;;;;6.65;5.28;;;16.00;86.50;;;;;;4207703;28;20460;-60
2021/10/24 02:26:27;;;;;;;5.75;5.20;;;16.00;86.80;;;;;;4208012;28;20518;-60
2021/10/24 02:28:50;;;;;;;9.45;6.10;;;16.00;86.50;;;;;;4208512;28;20063;-60
2021/10/24 02:31:12;;;;;;;10.27;5.88;;;15.90;86.70;;;;;;4207371;28;20127;-60
2021/10/24 02:33:57;;;;;;;7.78;6.72;;;15.90;86.50;;;;;;4208117;28;20097;-60
2021/10/24 02:36:48;;;;;;;6.88;6.00;;;15.90;86.60;;;;;;4199980;28;20044;-60
2021/10/24 02:39:10;;;;;;;8.40;6.25;;;15.90;87.20;;;;;;4206984;28;20048;-60
2021/10/24 02:41:35;;;;;;;6.85;6.15;;;15.90;86.80;;;;;;4207337;28;20055;-60
2021/10/24 02:43:57;;;;;;;9.73;6.88;;;15.80;86.40;;;;;;4207122;28;20136;-60
2021/10/24 02:46:24;;;;;;;7.38;6.68;;;15.80;86.50;;;;;;4206768;28;20075;-61
2021/10/24 02:48:47;;;;;;;9.20;6.35;;;15.80;86.30;;;;;;4191673;28;20059;-60
2021/10/24 02:51:09;;;;;;;7.57;6.45;;;15.80;86.30;;;;;;4192707;28;20053;-60
2021/10/24 02:53:31;;;;;;;8.45;6.88;;;15.80;86.20;;;;;;4208535;28;20131;-60
2021/10/24 02:55:57;;;;;;;7.10;6.07;;;15.80;86.50;;;;;;4206769;28;20093;-60
2021/10/24 02:58:21;;;;;;;8.13;6.00;;;15.70;86.40;;;;;;4206050;28;20054;-60
2021/10/24 03:00:43;;;;;;;7.15;5.70;;;15.70;86.30;;;;;;4206081;28;20051;-60
2021/10/24 03:03:05;;;;;;;10.18;6.78;;;15.70;86.10;;;;;;4206749;28;20075;-60
2021/10/24 03:05:28;;;;;;;9.43;6.57;;;15.70;87.10;;;;;;4205686;28;20518;-60
2021/10/24 03:07:54;;;;;;;10.05;6.80;;;15.70;87.00;;;;;;4207704;28;20131;-61
2021/10/24 03:10:15;;;;;;;6.22;5.63;;;15.80;87.20;;;;;;4208398;28;20055;-61
2021/10/24 03:12:38;;;;;;;7.75;6.95;;;15.90;87.30;;;;;;4206878;28;20118;-60
2021/10/24 03:15:04;;;;;;;9.55;7.00;;;16.00;87.20;;;;;;4206761;28;20054;-60
2021/10/24 03:17:26;;;;;;;10.55;6.90;;;16.10;86.20;;;;;;4206605;28;20040;-60
2021/10/24 03:19:48;;;;;;;9.35;6.70;;;16.30;85.90;;;;;;4206790;28;20051;-60
2021/10/24 03:22:11;;;;;;;7.88;6.35;;;16.30;85.20;;;;;;4207368;28;20048;-60
2021/10/24 03:24:34;;;;;;;10.55;7.53;;;16.40;84.90;;;;;;4206571;28;20520;-60
2021/10/24 03:26:58;;;;;;;8.30;6.70;;;16.40;84.50;;;;;;4206036;28;20065;-60
2021/10/24 03:29:20;;;;;;;8.43;6.05;;;16.40;84.50;;;;;;4207948;28;20552;-60
2021/10/24 03:31:43;;;;;;;6.93;6.05;;;16.40;84.50;;;;;;4206265;28;20520;-60
2021/10/24 03:34:05;;;;;;;8.23;6.68;;;16.40;84.20;;;;;;4206729;28;20051;-60
2021/10/24 03:36:28;;;;;;;9.02;6.35;;;16.40;84.40;;;;;;4206033;28;20497;-60
2021/10/24 03:38:51;;;;;;;9.40;6.82;;;16.40;84.30;;;;;;4206353;28;20486;-60
2021/10/24 03:41:13;;;;;;;10.35;6.95;;;16.30;84.50;;;;;;4206542;28;20054;-60
2021/10/24 03:43:36;;;;;;;6.75;6.15;;;16.30;84.70;;;;;;4206346;28;20047;-60
2021/10/24 03:45:58;;;;;;;9.05;6.63;;;16.30;84.90;;;;;;4223051;27;20040;-60
2021/10/24 03:48:22;;;;;;;8.48;6.45;;;16.30;84.90;;;;;;4206736;28;20056;-60
2021/10/24 03:50:45;;;;;;;10.02;6.32;;;16.30;84.80;;;;;;4206608;28;20056;-60
2021/10/24 03:53:07;;;;;;;8.52;6.97;;;16.20;85.00;;;;;;4207443;28;20126;-60
2021/10/24 03:55:29;;;;;;;7.70;6.20;;;16.20;84.90;;;;;;4206561;28;20052;-60
2021/10/24 03:57:51;;;;;;;7.28;6.43;;;16.20;84.90;;;;;;4223095;27;20055;-60
2021/10/24 04:00:14;;;;;;;7.38;6.68;;;16.10;85.00;;;;;;4223239;27;20081;-60
2021/10/24 04:02:51;;;;;;;7.25;6.38;;;16.10;85.00;;;;;;4224760;27;20452;-60
2021/10/24 04:05:16;;;;;;;9.23;7.03;;;16.10;84.50;;;;;;4222819;27;20053;-60
2021/10/24 04:07:38;;;;;;;8.07;5.95;;;16.10;85.10;;;;;;4223255;27;20056;-61
2021/10/24 04:10:01;;;;;;;9.35;6.88;;;16.00;85.60;;;;;;4189638;28;20044;-61
2021/10/24 04:12:24;;;;;;;9.45;6.78;;;16.00;85.60;;;;;;4224938;27;20046;-60
2021/10/24 04:14:45;;;;;;;7.07;6.38;;;16.00;85.70;;;;;;4226320;27;20047;-61
2021/10/24 04:17:11;;;;;;;9.13;6.82;;;15.90;85.60;;;;;;4213214;28;20051;-61
2021/10/24 04:19:38;;;;;;;7.45;6.38;;;15.90;85.60;;;;;;4209190;28;20040;-62
2021/10/24 04:22:02;;;;;;;6.78;6.07;;;15.90;85.90;;;;;;4210686;28;20056;-63
2021/10/24 04:24:25;;;;;;;7.25;6.43;;;15.80;85.50;;;;;;4209303;28;20051;-60
2021/10/24 04:26:47;;;;;;;8.13;6.30;;;15.80;86.00;;;;;;4217507;28;20054;-62
2021/10/24 04:29:09;;;;;;;6.85;6.25;;;15.80;86.30;;;;;;4226122;27;20136;-62
2021/10/24 04:31:33;;;;;;;6.82;6.00;;;15.90;86.30;;;;;;4226065;27;20047;-62
2021/10/24 04:33:56;;;;;;;6.68;6.07;;;16.00;85.70;;;;;;4225897;28;20051;-62
2021/10/24 04:36:18;;;;;;;9.25;6.15;;;16.00;85.60;;;;;;4218455;28;20121;-62
2021/10/24 04:38:42;;;;;;;7.93;6.15;;;16.10;85.60;;;;;;4209209;28;20048;-62
2021/10/24 04:41:05;;;;;;;6.78;6.00;;;16.10;85.20;;;;;;4209185;28;20054;-62
2021/10/24 04:43:27;;;;;;;7.28;6.30;;;16.20;85.10;;;;;;4192071;28;20052;-62
2021/10/24 04:45:49;;;;;;;6.57;5.93;;;16.20;84.90;;;;;;4197990;27;20052;-61
2021/10/24 04:48:16;;;;;;;7.20;6.15;;;16.20;84.60;;;;;;4225853;27;20039;-61
2021/10/24 04:50:40;;;;;;;7.35;6.68;;;16.20;84.60;;;;;;4225902;27;20079;-61
2021/10/24 04:53:06;;;;;;;7.25;6.50;;;16.20;84.50;;;;;;4226015;27;20518;-62
2021/10/24 04:55:30;;;;;;;7.05;6.40;;;16.20;84.30;;;;;;4224260;27;20122;-62
2021/10/24 04:57:52;;;;;;;8.45;6.25;;;16.20;84.40;;;;;;4207848;28;20042;-61
2021/10/24 05:00:14;;;;;;;7.93;6.63;;;16.30;84.60;;;;;;4209968;28;20040;-61
2021/10/24 05:02:36;;;;;;;8.18;6.30;;;16.30;84.10;;;;;;4208817;28;20128;-61
2021/10/24 05:04:58;;;;;;;8.50;6.28;;;16.40;83.70;;;;;;4210078;28;20390;-62
2021/10/24 05:07:22;;;;;;;6.55;5.85;;;16.40;83.30;;;;;;4193234;28;20048;-62
2021/10/24 05:09:44;;;;;;;7.25;6.13;;;16.40;83.30;;;;;;4193345;28;20060;-61
2021/10/24 05:12:07;;;;;;;7.03;6.32;;;16.40;83.20;;;;;;4193348;28;20506;-62
2021/10/24 05:14:30;;;;;;;8.30;6.40;;;16.40;83.10;;;;;;4191887;28;20484;-62
2021/10/24 05:16:53;;;;;;;7.20;6.53;;;16.40;83.20;;;;;;4208098;28;20460;-61
2021/10/24 05:19:16;;;;;;;8.15;6.28;;;16.40;83.10;;;;;;4208502;28;20521;-61
2021/10/24 05:21:39;;;;;;;6.95;6.28;;;16.40;83.00;;;;;;4218107;27;20050;-62
2021/10/24 05:24:01;;;;;;;8.13;6.50;;;16.30;82.90;;;;;;4226559;27;20114;-62
2021/10/24 05:26:23;;;;;;;9.20;6.85;;;16.30;83.20;;;;;;4212973;28;20165;-62
2021/10/24 05:28:46;;;;;;;7.60;6.90;;;16.30;83.20;;;;;;4209769;28;20108;-62
2021/10/24 05:31:09;;;;;;;7.80;6.15;;;16.30;83.00;;;;;;4216881;28;20089;-61
2021/10/24 05:33:37;;;;;;;8.63;7.30;;;16.20;83.40;;;;;;4224717;27;20047;-62
2021/10/24 05:36:14;;;;;;;8.75;7.03;;;16.20;83.40;;;;;;4253809;27;20467;-62
2021/10/24 05:38:36;;;;;;;7.32;5.80;;;16.20;84.00;;;;;;4226341;27;20092;-62
2021/10/24 05:41:05;;;;;;;9.23;6.70;;;16.10;84.10;;;;;;4216125;28;20051;-61
2021/10/24 05:43:28;;;;;;;6.90;5.75;;;16.10;84.30;;;;;;4207691;28;20595;-62
2021/10/24 05:45:52;;;;;;;8.50;7.68;;;16.20;84.00;;;;;;4207918;28;20777;-61
2021/10/24 05:48:15;;;;;;;7.15;6.13;;;16.30;83.50;;;;;;4208204;28;20060;-62
2021/10/24 05:50:47;;;;;;;7.68;6.95;;;16.30;83.50;;;;;;4206399;27;20105;-62
2021/10/24 05:53:09;;;;;;;7.80;6.72;;;16.30;83.40;;;;;;4224590;27;20035;-61
2021/10/24 05:55:31;;;;;;;8.05;6.80;;;16.40;83.00;;;;;;4224810;27;20426;-60
2021/10/24 05:57:54;;;;;;;9.43;6.70;;;16.40;83.00;;;;;;4226034;27;20050;-60
2021/10/24 06:00:41;;;;;;;8.65;7.35;;;16.40;83.00;;;;;;4207831;27;20177;-60
2021/10/24 06:03:25;;;;;;;7.60;6.90;;;16.40;83.20;;;;;;4192286;28;20131;-60
2021/10/24 06:06:09;;;;;;;10.77;7.05;;;16.40;82.80;;;;;;4209043;28;20500;-60
2021/10/24 06:08:35;;;;;;;7.35;6.53;;;16.40;83.20;;;;;;4207586;28;20043;-60
2021/10/24 06:11:05;;;;;;;7.43;6.65;;;16.40;82.90;;;;;;4207336;28;20558;-60
2021/10/24 06:13:27;;;;;;;7.18;6.38;;;16.40;82.60;;;;;;4208338;28;20052;-61
2021/10/24 06:15:50;;;;;;;8.27;6.97;;;16.40;83.40;;;;;;4208717;28;20048;-61
2021/10/24 06:18:13;;;;;;;8.38;6.82;;;16.40;82.40;;;;;;4207701;28;20069;-60
2021/10/24 06:20:36;;;;;;;8.38;7.43;;;16.40;82.80;;;;;;4198577;28;20052;-60
2021/10/24 06:22:58;;;;;;;7.50;6.75;;;16.40;82.70;;;;;;4207634;28;20451;-61
2021/10/24 06:25:22;;;;;;;9.18;6.57;;;16.40;82.70;;;;;;4207065;28;20044;-61
2021/10/24 06:27:53;;;;;;;7.55;6.65;;;16.30;82.70;;;;;;4205963;28;20130;-61
2021/10/24 06:30:17;;;;;;;7.32;6.57;;;16.30;83.10;;;;;;4192141;28;20461;-61
2021/10/24 06:32:59;;;;;;;7.45;6.65;;;16.30;83.80;;;;;;4172910;28;20127;-61
2021/10/24 06:35:46;;;;;;;8.10;6.45;;;16.20;83.10;;;;;;4191085;28;20128;-61
2021/10/24 06:38:27;;;;;;;7.35;6.60;;;16.20;82.90;;;;;;4195780;28;20418;-59
2021/10/24 06:40:57;;;;;;;6.85;6.15;;;16.10;82.70;;;;;;4211024;28;20112;-60
2021/10/24 06:43:19;;;;;;;7.93;6.80;;;16.10;82.90;;;;;;4223947;28;20051;-60
2021/10/24 06:46:01;;;;;;;8.93;6.83;;;16.00;82.60;;;;;;4225073;27;20798;-59
2021/10/24 06:48:38;;;;;;;7.25;6.50;;;16.00;83.20;;;;;;4217064;27;20285;-59
2021/10/24 06:51:09;;;;;;;7.70;6.75;;;15.90;83.60;;;;;;4205797;28;20201;-59
2021/10/24 06:53:50;;;;;;;8.98;6.35;;;15.90;83.60;;;;;;4208163;28;20624;-60
2021/10/24 06:56:31;;;;;;;8.70;7.15;;;15.90;84.80;;;;;;4190893;28;20051;-59
2021/10/24 06:59:11;;;;;;;7.75;6.32;;;16.00;85.50;;;;;;4203793;28;20048;-60
2021/10/24 07:01:59;;;;;;;7.65;6.68;;;16.10;85.10;;;;;;4190947;28;20044;-59
2021/10/24 07:04:42;;;;;;;7.55;6.82;;;16.20;84.60;;;;;;4191294;28;20052;-59
2021/10/24 07:07:23;;;;;;;10.43;6.85;;;16.20;85.40;;;;;;4190027;28;20045;-59
2021/10/24 07:09:53;;;;;;;7.15;6.18;;;16.30;83.80;;;;;;4204632;28;20047;-60
2021/10/24 07:12:15;;;;;;;9.48;7.28;;;16.30;83.20;;;;;;4207988;28;20528;-60
2021/10/24 07:14:38;;;;;;;7.95;6.57;;;16.30;82.20;;;;;;4207908;28;20093;-60
2021/10/24 07:17:00;;;;;;;7.38;6.68;;;16.30;81.60;;;;;;4191456;28;20048;-59
2021/10/24 07:19:22;;;;;;;9.20;6.13;;;16.30;81.50;;;;;;4205668;28;20055;-59
2021/10/24 07:21:44;;;;;;;8.35;6.55;;;16.20;81.20;;;;;;4206682;28;20051;-59
2021/10/24 07:24:27;;;;;;;8.50;6.78;;;16.20;81.10;;;;;;4207857;28;20116;-60
2021/10/24 07:26:50;;;;;;;7.50;6.53;;;16.30;80.80;;;;;;4205959;28;20051;-59
2021/10/24 07:29:12;;;;;;;8.20;7.15;;;16.30;80.60;;;;;;4189916;28;20048;-60
2021/10/24 07:31:36;;;;;;;7.30;6.35;;;16.40;80.10;;;;;;4191238;28;20171;-60
2021/10/24 07:34:21;;;;;;;7.35;6.65;;;16.30;79.10;;;;;;4204721;28;20509;-59
2021/10/24 07:36:43;;;;;;;7.63;6.80;;;16.30;79.10;;;;;;4206147;28;20406;-59
2021/10/24 07:39:06;;;;;;;6.95;6.30;;;16.30;79.40;;;;;;4206812;28;20043;-60
2021/10/24 07:41:31;;;;;;;9.32;6.70;;;16.30;78.70;;;;;;4207216;28;20131;-59
2021/10/24 07:43:53;;;;;;;9.07;6.30;;;16.20;78.50;;;;;;4206782;28;20052;-60
2021/10/24 07:46:16;;;;;;;7.18;6.43;;;16.20;79.40;;;;;;4207039;28;20062;-60
2021/10/24 07:48:38;;;;;;;8.23;6.47;;;16.20;79.30;;;;;;4209882;28;20113;-58
2021/10/24 07:51:03;;;;;;;7.05;6.35;;;16.20;79.60;;;;;;4209977;28;20056;-59
2021/10/24 07:53:26;;;;;;;7.72;6.30;;;16.10;79.30;;;;;;4209622;28;20044;-59
2021/10/24 07:55:50;;;;;;;7.00;5.90;;;16.10;79.10;;;;;;4209174;28;20144;-60
2021/10/24 07:58:29;;;;;;;7.20;6.28;;;16.00;79.30;;;;;;4192791;28;20048;-59
2021/10/24 08:00:51;;;;;;;7.32;6.28;;;16.00;79.70;;;;;;4194513;28;20509;-59
2021/10/24 08:03:13;;;;;;;7.30;6.57;;;16.00;80.00;;;;;;4192845;28;20045;-59
2021/10/24 08:05:36;;;;;;;6.95;6.32;;;15.90;79.80;;;;;;4208335;27;20134;-59
2021/10/24 08:08:00;;;;;;;7.43;6.35;;;15.90;79.90;;;;;;4209177;28;20479;-60
2021/10/24 08:10:23;;;;;;;9.20;6.18;;;15.90;80.00;;;;;;4233068;27;20058;-60
2021/10/24 08:12:46;;;;;;;7.47;6.00;;;15.90;79.90;;;;;;4211242;28;20071;-60
2021/10/24 08:15:12;;;;;;;8.90;5.85;;;15.90;79.30;;;;;;4208766;28;20559;-61
2021/10/24 08:17:35;;;;;;;8.35;6.20;;;15.80;79.00;;;;;;4208940;28;20048;-59
2021/10/24 08:20:18;;;;;;;7.30;6.45;;;15.80;80.10;;;;;;4210649;28;20486;-60
2021/10/24 08:22:40;;;;;;;8.32;6.43;;;15.70;79.90;;;;;;4209282;28;20052;-59
2021/10/24 08:25:02;;;;;;;7.70;6.30;;;15.70;80.20;;;;;;4209402;28;20056;-60
2021/10/24 08:27:26;;;;;;;7.53;6.40;;;15.70;80.30;;;;;;4208100;28;20071;-60
2021/10/24 08:30:08;;;;;;;6.72;6.03;;;15.70;79.90;;;;;;4209203;28;20051;-59
2021/10/24 08:32:40;;;;;;;7.75;6.55;;;15.60;79.80;;;;;;4208868;28;20129;-60
2021/10/24 08:35:02;;;;;;;8.00;6.50;;;15.60;79.60;;;;;;4209167;28;20457;-60
2021/10/24 08:37:24;;;;;;;8.23;6.60;;;15.60;79.50;;;;;;4209253;28;20486;-60
2021/10/24 08:39:48;;;;;;;7.45;6.32;;;15.60;79.60;;;;;;4209843;28;20060;-62
2021/10/24 08:42:11;;;;;;;7.22;6.40;;;15.60;78.70;;;;;;4209768;28;20075;-60
2021/10/24 08:44:33;;;;;;;9.02;5.93;;;15.50;78.90;;;;;;4208949;28;20048;-60
2021/10/24 08:46:55;;;;;;;7.32;5.65;;;15.50;79.20;;;;;;4209945;28;20078;-60
2021/10/24 08:49:19;;;;;;;6.68;5.82;;;15.50;79.50;;;;;;4210333;28;20040;-60
2021/10/24 08:51:41;;;;;;;7.15;6.45;;;15.50;79.60;;;;;;4209053;28;20059;-60
2021/10/24 08:54:04;;;;;;;6.53;5.88;;;15.50;80.60;;;;;;4208758;28;20044;-60
2021/10/24 08:56:29;;;;;;;6.45;5.70;;;15.80;80.00;;;;;;4227261;27;20046;-59
2021/10/24 08:58:52;;;;;;;10.73;5.97;;;16.20;79.50;;;;;;4224734;27;20047;-61
2021/10/24 09:01:15;;;;;;;6.25;5.63;;;16.70;77.80;;;;;;4222282;27;20717;-60
2021/10/24 09:03:37;;;;;;;8.63;6.72;;;17.30;74.60;;;;;;4199524;28;20093;-62
2021/10/24 09:06:01;;;;;;;7.97;6.10;;;17.90;71.70;;;;;;4200617;27;20047;-63
2021/10/24 09:08:25;;;;;;;5.95;5.38;;;18.50;68.90;;;;;;4225604;28;20047;-62
2021/10/24 09:10:49;;;;;;;6.50;5.93;;;19.10;66.60;;;;;;4226942;27;20512;-60
2021/10/24 09:13:12;;;;;;;5.93;5.47;;;19.70;64.10;;;;;;4227015;27;20052;-61
2021/10/24 09:15:46;;;;;;;5.60;5.13;;;20.10;62.50;;;;;;4226086;27;20048;-61
2021/10/24 09:18:09;;;;;;;5.80;5.28;;;20.50;61.00;;;;;;4193139;28;20082;-61
2021/10/24 09:20:46;;;;;;;6.47;5.88;;;20.60;60.10;;;;;;4206587;28;20040;-67
2021/10/24 09:23:11;;;;;;;5.45;4.90;;;20.60;60.10;;;;;;4209549;28;20064;-63
2021/10/24 09:25:33;;;;;;;5.80;5.20;;;20.60;59.80;;;;;;4210053;28;20094;-64
2021/10/24 09:27:57;;;;;;;5.30;4.80;;;20.50;60.60;;;;;;4209793;28;20054;-63
2021/10/24 09:30:23;;;;;;;7.72;4.88;;;20.30;60.50;;;;;;4191532;28;20131;-64
2021/10/24 09:32:48;;;;;;;5.53;5.13;;;20.00;61.40;;;;;;4192974;28;20056;-63
2021/10/24 09:35:10;;;;;;;5.45;4.88;;;19.90;62.40;;;;;;4193019;28;20043;-64
2021/10/24 09:37:51;;;;;;;5.68;5.10;;;19.60;62.80;;;;;;4192803;28;20491;-66
2021/10/24 09:40:37;;;;;;;6.53;5.20;;;19.40;65.40;;;;;;4197653;28;20109;-63
2021/10/24 09:43:18;;;;;;;6.47;4.85;;;19.40;65.90;;;;;;4209218;28;20398;-62
2021/10/24 09:45:41;;;;;;;13.63;6.10;;;19.40;67.10;;;;;;4209244;28;20413;-64
2021/10/24 09:48:08;;;;;;;6.75;4.72;;;19.40;69.20;;;;;;4209249;28;20520;-64
2021/10/24 09:50:33;;;;;;;6.72;5.45;;;19.30;69.00;;;;;;4209608;28;20052;-64
2021/10/24 09:53:13;;;;;;;8.10;4.63;;;19.20;69.10;;;;;;4207256;28;20051;-63
2021/10/24 09:55:36;;;;;;;6.07;4.90;;;19.30;68.90;;;;;;4208791;28;20490;-64
2021/10/24 09:57:59;;;;;;;5.20;4.70;;;19.30;68.40;;;;;;4191079;28;20068;-64
2021/10/24 10:00:21;;;;;;;9.43;5.60;;;19.30;67.90;;;;;;4205801;28;20051;-64
2021/10/24 10:02:44;;;;;;;5.07;4.65;;;19.40;67.50;;;;;;4209151;28;20056;-61
2021/10/24 10:05:07;;;;;;;5.25;4.38;;;19.40;67.80;;;;;;4208940;28;20054;-63
2021/10/24 10:07:29;;;;;;;5.35;4.93;;;19.50;67.40;;;;;;4207715;28;20055;-62
2021/10/24 10:09:51;;;;;;;5.85;5.35;;;19.60;67.30;;;;;;4208099;28;20142;-62
2021/10/24 10:12:21;;;;;;;5.45;4.82;;;19.60;67.10;;;;;;4208953;28;20406;-63
2021/10/24 10:14:43;;;;;;;5.30;4.80;;;19.70;67.00;;;;;;4190842;28;20056;-62
2021/10/24 10:17:12;;;;;;;6.18;4.78;;;19.70;66.60;;;;;;4195853;28;20051;-63
2021/10/24 10:19:36;;;;;;;5.03;4.63;;;19.70;65.90;;;;;;4208069;28;20148;-62
2021/10/24 10:22:26;;;;;;;5.72;4.53;;;19.70;66.00;;;;;;4206876;28;20514;-62
2021/10/24 10:24:54;;;;;;;5.15;4.65;;;19.80;66.20;;;;;;4225395;27;20503;-62
2021/10/24 10:27:43;;;;;;;4.75;4.43;;;19.90;65.80;;;;;;4225388;27;20569;-63
2021/10/24 10:30:13;;;;;;;5.07;4.35;;;19.90;65.60;;;;;;4222471;27;20047;-62
2021/10/24 10:32:36;;;;;;;5.70;5.20;;;19.90;66.90;;;;;;4224557;27;20504;-62
2021/10/24 10:35:07;;;;;;;12.45;7.82;;;19.80;66.80;;;;;;4207091;28;20058;-62
2021/10/24 10:37:44;;;;;;;14.85;10.00;;;19.80;66.20;;;;;;4205967;28;20143;-61
2021/10/24 10:40:14;;;;;;;16.52;8.68;;;19.80;66.50;;;;;;4207012;28;20052;-62
2021/10/24 10:43:11;;;;;;;42.28;19.80;;;19.70;66.60;;;;;;4208688;28;20521;-62
2021/10/24 10:45:48;;;;;;;36.05;21.33;;;19.60;65.40;;;;;;4207752;28;20105;-62
2021/10/24 10:48:24;;;;;;;18.23;10.40;;;19.70;68.40;;;;;;4206296;28;20051;-62
2021/10/24 10:50:48;;;;;;;28.70;15.07;;;19.70;67.70;;;;;;4206060;28;20055;-63
2021/10/24 10:53:12;;;;;;;11.68;6.97;;;19.80;67.90;;;;;;4206253;28;20133;-63
2021/10/24 10:56:05;;;;;;;17.52;11.60;;;19.80;66.90;;;;;;4196440;28;20113;-62
2021/10/24 10:58:29;;;;;;;8.00;6.63;;;19.90;66.50;;;;;;4191081;28;20044;-62
2021/10/24 11:00:56;;;;;;;27.05;16.35;;;20.00;66.40;;;;;;4208043;28;20129;-63
2021/10/24 11:03:42;;;;;;;16.15;10.50;;;20.00;66.30;;;;;;4207437;28;20055;-62
2021/10/24 11:06:04;;;;;;;7.43;5.82;;;20.00;65.30;;;;;;4207141;28;20044;-64
2021/10/24 11:08:49;;;;;;;6.50;5.90;;;20.00;66.50;;;;;;4207784;28;20052;-65
2021/10/24 11:11:11;;;;;;;14.80;9.82;;;20.00;65.60;;;;;;4207874;28;20052;-64
2021/10/24 11:13:38;;;;;;;5.78;4.75;;;20.10;66.30;;;;;;4205047;28;20048;-65
2021/10/24 11:16:38;;;;;;;4.63;4.18;;;20.20;65.30;;;;;;4206374;28;20059;-63
2021/10/24 11:19:05;;;;;;;4.97;4.10;;;20.20;64.30;;;;;;4204697;28;20052;-63
2021/10/24 11:21:28;;;;;;;14.45;7.85;;;20.20;65.10;;;;;;4206461;28;20051;-61
2021/10/24 11:23:56;;;;;;;6.20;5.43;;;20.10;65.30;;;;;;4205912;28;20422;-63
2021/10/24 11:26:19;;;;;;;6.60;4.57;;;20.10;65.70;;;;;;4208189;28;20043;-62
2021/10/24 11:28:43;;;;;;;13.32;8.73;;;20.20;62.80;;;;;;4193239;28;20457;-62
2021/10/24 11:31:07;;;;;;;5.53;4.35;;;20.20;64.50;;;;;;4224566;27;20460;-62
2021/10/24 11:33:44;;;;;;;4.07;3.72;;;20.20;64.50;;;;;;4224820;27;20059;-62
2021/10/24 11:36:07;;;;;;;8.85;5.55;;;20.20;63.70;;;;;;4222749;27;20063;-62
2021/10/24 11:38:30;;;;;;;12.68;7.38;;;20.20;65.10;;;;;;4208188;27;20048;-62
2021/10/24 11:40:52;;;;;;;12.63;8.77;;;20.20;65.40;;;;;;4219296;27;20131;-62
2021/10/24 11:43:16;;;;;;;10.68;7.78;;;20.10;65.20;;;;;;4224966;27;20047;-63
2021/10/24 11:45:43;;;;;;;11.07;7.18;;;20.10;64.60;;;;;;4224702;27;20075;-62
2021/10/24 11:48:09;;;;;;;18.05;12.15;;;20.00;65.30;;;;;;4224280;27;20134;-62
2021/10/24 11:50:55;;;;;;;10.13;7.07;;;20.00;66.40;;;;;;4224886;27;20047;-62
2021/10/24 11:53:23;;;;;;;7.47;5.15;;;20.00;64.70;;;;;;4211741;27;20109;-62
2021/10/24 11:55:46;;;;;;;6.72;4.90;;;19.80;65.50;;;;;;4207968;28;20158;-62
2021/10/24 11:58:22;;;;;;;13.65;8.82;;;19.80;66.40;;;;;;4207313;28;20068;-61
2021/10/24 12:00:50;;;;;;;5.22;4.30;;;19.90;66.50;;;;;;4191167;28;20049;-62
2021/10/24 12:03:12;;;;;;;6.75;4.85;;;19.90;66.50;;;;;;4189962;28;20037;-61
2021/10/24 12:05:38;;;;;;;5.82;4.45;;;19.90;66.30;;;;;;4193147;28;20048;-62
2021/10/24 12:08:00;;;;;;;9.32;6.75;;;19.80;65.60;;;;;;4207775;28;20048;-62
2021/10/24 12:10:35;;;;;;;11.80;7.72;;;19.80;66.90;;;;;;4206219;28;20067;-63
2021/10/24 12:12:58;;;;;;;5.20;3.70;;;19.80;66.80;;;;;;4207171;28;20052;-62
2021/10/24 12:15:36;;;;;;;15.60;9.40;;;19.90;67.10;;;;;;4206590;28;20109;-62
2021/10/24 12:17:59;;;;;;;6.97;4.63;;;19.90;67.50;;;;;;4206369;28;20055;-63
2021/10/24 12:20:25;;;;;;;7.13;5.35;;;19.90;67.70;;;;;;4206822;28;20052;-63
2021/10/24 12:22:49;;;;;;;4.40;3.05;;;19.90;66.50;;;;;;4207596;28;20123;-62
2021/10/24 12:25:16;;;;;;;4.18;3.45;;;20.00;66.30;;;;;;4207764;28;20060;-62
2021/10/24 12:27:40;;;;;;;4.13;3.08;;;20.00;66.20;;;;;;4206496;28;20079;-62
2021/10/24 12:30:08;;;;;;;5.63;4.05;;;20.00;66.80;;;;;;4207103;28;20052;-63
2021/10/24 12:32:31;;;;;;;12.00;6.70;;;19.90;65.90;;;;;;4204597;28;20060;-62
2021/10/24 12:35:02;;;;;;;8.13;5.18;;;20.00;68.00;;;;;;4210381;28;20044;-62
2021/10/24 12:37:26;;;;;;;5.38;3.05;;;19.90;65.50;;;;;;4207195;28;20447;-62
2021/10/24 12:39:48;;;;;;;7.78;4.45;;;19.90;66.20;;;;;;4208348;28;20055;-62